Time;durP1;ratioP1;P1;durP2;ratioP2;P2;SDS_P1;SDS_P2;PMS_P1;PMS_P2;Temp;Humidity;BMP_temperature;BMP_pressure;BME280_temperature;BME280_humidity;BME280_pressure;Samples;Min_cycle;Max_cycle;Signal;HPM_P1;HPM_P2
2021/04/24 00:00:56;;;;;;;2.72;2.53;;;;;;;7.22;51.39;93934.56;5070649;28;20028;-43
2021/04/24 00:03:23;;;;;;;0.22;0.22;;;;;;;7.20;50.68;93942.59;5070379;28;20409;-45
2021/04/24 00:05:49;;;;;;;0.40;0.40;;;;;;;7.16;51.53;93938.63;5070824;28;20432;-44
2021/04/24 00:08:17;;;;;;;1.05;0.47;;;;;;;7.08;50.81;93924.72;5070264;28;20060;-43
2021/04/24 00:10:49;;;;;;;0.70;0.70;;;;;;;7.07;51.17;93930.72;5073512;28;20028;-43
2021/04/24 00:13:15;;;;;;;0.45;0.40;;;;;;;7.05;51.15;93936.75;5080409;28;20037;-44
2021/04/24 00:15:42;;;;;;;12.77;11.52;;;;;;;7.07;52.00;93936.22;5070556;28;20145;-43
2021/04/24 00:18:08;;;;;;;4.57;4.20;;;;;;;6.86;52.74;93922.94;5076063;28;20466;-44
2021/04/24 00:20:34;;;;;;;1.42;1.42;;;;;;;6.89;53.63;93937.63;5090362;28;20028;-45
2021/04/24 00:22:59;;;;;;;5.63;2.60;;;;;;;7.03;53.96;93928.28;5090418;28;20032;-46
2021/04/24 00:25:25;;;;;;;4.93;2.38;;;;;;;6.73;53.92;93928.31;5090167;28;20385;-43
2021/04/24 00:27:50;;;;;;;0.82;0.82;;;;;;;6.65;52.03;93924.63;5089510;28;20032;-44
2021/04/24 00:30:17;;;;;;;0.70;0.70;;;;;;;6.74;54.40;93937.28;5078367;28;20035;-45
2021/04/24 00:32:45;;;;;;;0.45;0.45;;;;;;;6.64;55.17;93938.88;5080502;28;20024;-45
2021/04/24 00:35:11;;;;;;;0.70;0.70;;;;;;;6.63;55.72;93942.84;5081069;28;20083;-45
2021/04/24 00:37:37;;;;;;;1.58;1.52;;;;;;;6.68;56.24;93944.81;5078654;28;20035;-43
2021/04/24 00:40:04;;;;;;;1.23;1.23;;;;;;;6.66;55.42;93947.31;5080088;28;20024;-45
2021/04/24 00:42:30;;;;;;;1.73;1.63;;;;;;;6.62;56.02;93952.34;5077505;28;20036;-45
2021/04/24 00:44:55;;;;;;;0.43;0.43;;;;;;;6.55;56.12;93952.91;5069539;28;20024;-46
2021/04/24 00:47:22;;;;;;;1.33;1.23;;;;;;;6.45;56.70;93949.75;5069690;28;20035;-47
2021/04/24 00:49:48;;;;;;;0.82;0.82;;;;;;;6.45;57.12;93943.50;5069587;28;20428;-43
2021/04/24 00:52:15;;;;;;;1.50;1.27;;;;;;;6.17;57.85;93951.94;5069911;28;20024;-44
2021/04/24 00:54:40;;;;;;;1.25;0.65;;;;;;;6.27;57.86;93955.09;5069572;28;20078;-45
2021/04/24 00:57:06;;;;;;;0.55;0.55;;;;;;;6.29;57.43;93961.56;5069617;28;20040;-44
2021/04/24 00:59:32;;;;;;;0.98;0.98;;;;;;;6.15;57.70;93948.19;5069441;28;20032;-45
2021/04/24 01:01:58;;;;;;;1.13;1.13;;;;;;;6.16;59.76;93958.66;5069477;28;20020;-43
2021/04/24 01:04:23;;;;;;;1.80;1.40;;;;;;;5.96;59.94;93948.78;5069224;28;20641;-45
2021/04/24 01:06:49;;;;;;;2.63;2.42;;;;;;;5.98;59.35;93953.75;5062363;28;20156;-46
2021/04/24 01:09:15;;;;;;;0.80;0.80;;;;;;;5.90;60.47;93950.06;5049160;28;20031;-49
2021/04/24 01:11:41;;;;;;;0.77;0.63;;;;;;;5.67;59.79;93934.97;5049323;28;20029;-47
2021/04/24 01:14:06;;;;;;;0.75;0.75;;;;;;;5.70;59.88;93948.38;5049125;28;20493;-47
2021/04/24 01:16:32;;;;;;;1.70;1.45;;;;;;;5.64;60.09;93950.41;5049084;28;20576;-49
2021/04/24 01:18:57;;;;;;;1.23;1.23;;;;;;;5.64;61.58;93947.69;5061181;28;20072;-52
2021/04/24 01:21:24;;;;;;;1.40;1.30;;;;;;;5.57;61.64;93948.19;5068652;28;20108;-48
2021/04/24 01:23:50;;;;;;;0.93;0.93;;;;;;;5.49;62.90;93949.22;5068708;28;20516;-45
2021/04/24 01:26:16;;;;;;;1.27;1.25;;;;;;;5.43;61.51;93956.72;5068652;28;20550;-47
2021/04/24 01:28:41;;;;;;;1.92;1.83;;;;;;;5.47;60.77;93954.47;5068719;28;20032;-43
2021/04/24 01:31:07;;;;;;;0.50;0.50;;;;;;;5.47;58.41;93952.47;5068912;28;20035;-45
2021/04/24 01:33:32;;;;;;;0.63;0.63;;;;;;;5.56;57.06;93954.94;5068528;28;20036;-45
2021/04/24 01:35:58;;;;;;;2.13;0.68;;;;;;;5.57;55.00;93953.69;5068660;28;20036;-44
2021/04/24 01:38:23;;;;;;;0.28;0.28;;;;;;;5.73;54.40;93955.63;5056387;28;20040;-44
2021/04/24 01:40:49;;;;;;;0.30;0.30;;;;;;;5.77;56.11;93958.81;5030919;28;20060;-45
2021/04/24 01:43:14;;;;;;;0.55;0.55;;;;;;;5.67;60.23;93965.84;5048593;28;20409;-43
2021/04/24 01:45:40;;;;;;;1.02;1.02;;;;;;;5.46;59.52;93953.00;5047668;28;20036;-50
2021/04/24 01:48:06;;;;;;;0.35;0.35;;;;;;;5.53;58.98;93947.72;5048631;28;20025;-47
2021/04/24 01:50:35;;;;;;;2.20;0.77;;;;;;;5.56;59.26;93954.19;5048067;28;20032;-48
2021/04/24 01:53:01;;;;;;;0.93;0.93;;;;;;;5.57;53.04;93947.44;5048314;28;20032;-48
2021/04/24 01:55:29;;;;;;;2.72;2.28;;;;;;;5.72;53.68;93942.41;5063128;28;20028;-46
2021/04/24 01:57:56;;;;;;;0.55;0.55;;;;;;;5.73;53.72;93952.13;5068109;28;20565;-47
2021/04/24 02:00:44;;;;;;;0.45;0.45;;;;;;;5.72;53.01;93961.56;5068029;28;20024;-47
2021/04/24 02:03:11;;;;;;;1.15;1.05;;;;;;;5.64;54.35;93949.66;5068005;28;20065;-49
2021/04/24 02:05:37;;;;;;;0.22;0.22;;;;;;;5.74;53.47;93951.59;5068117;28;20024;-48
2021/04/24 02:08:16;;;;;;;0.30;0.30;;;;;;;5.77;53.05;93956.09;5086180;28;20088;-46
2021/04/24 02:10:49;;;;;;;0.35;0.35;;;;;;;5.78;51.25;93948.63;5089896;28;20020;-45
2021/04/24 02:13:17;;;;;;;0.30;0.30;;;;;;;5.74;51.21;93943.38;5089689;28;20024;-47
2021/04/24 02:15:43;;;;;;;0.20;0.20;;;;;;;5.76;50.25;93946.38;5090071;28;20028;-46
2021/04/24 02:18:09;;;;;;;0.20;0.20;;;;;;;5.82;49.84;93943.63;5084199;28;20023;-47
2021/04/24 02:20:36;;;;;;;0.40;0.40;;;;;;;5.82;49.63;93952.59;5069877;28;20756;-46
2021/04/24 02:23:03;;;;;;;0.68;0.68;;;;;;;5.92;51.04;93950.31;5069802;28;20032;-46
2021/04/24 02:25:28;;;;;;;1.30;1.20;;;;;;;5.89;51.50;93960.28;5071122;28;20032;-46
2021/04/24 02:27:55;;;;;;;0.50;0.50;;;;;;;5.95;50.83;93961.03;5069557;28;20550;-47
2021/04/24 02:30:21;;;;;;;2.65;1.35;;;;;;;5.94;51.67;93959.50;5069862;28;20049;-45
2021/04/24 02:32:47;;;;;;;0.47;0.47;;;;;;;5.89;52.90;93954.81;5069428;28;20024;-45
2021/04/24 02:35:16;;;;;;;0.77;0.77;;;;;;;5.86;53.92;93964.06;5086703;28;20043;-44
2021/04/24 02:37:42;;;;;;;1.42;0.98;;;;;;;5.75;55.09;93961.34;5089848;28;20453;-45
2021/04/24 02:40:11;;;;;;;1.08;1.08;;;;;;;5.70;55.28;93962.09;5089353;28;20077;-47
2021/04/24 02:42:36;;;;;;;1.00;0.90;;;;;;;5.78;54.37;93963.03;5089781;28;20103;-45
2021/04/24 02:45:05;;;;;;;0.68;0.68;;;;;;;5.53;55.85;93953.19;5089608;28;20523;-46
2021/04/24 02:47:32;;;;;;;0.52;0.52;;;;;;;5.50;56.03;93959.66;5089812;28;20673;-45
2021/04/24 02:49:59;;;;;;;1.00;1.00;;;;;;;5.44;56.56;93956.22;5073999;28;20032;-45
2021/04/24 02:52:24;;;;;;;0.47;0.45;;;;;;;5.30;57.03;93946.31;5069083;28;20033;-45
2021/04/24 02:54:50;;;;;;;4.60;1.90;;;;;;;5.38;56.54;93953.50;5069126;28;20032;-48
2021/04/24 02:57:15;;;;;;;1.45;1.35;;;;;;;5.13;57.02;93956.56;5070767;28;20036;-47
2021/04/24 02:59:41;;;;;;;1.42;1.33;;;;;;;5.18;57.24;93964.00;5073260;28;20035;-45
2021/04/24 03:02:06;;;;;;;0.50;0.50;;;;;;;5.15;56.67;93965.78;5073297;28;20051;-45
2021/04/24 03:04:31;;;;;;;0.55;0.55;;;;;;;5.11;55.55;93961.78;5073282;28;20091;-47
2021/04/24 03:06:57;;;;;;;0.63;0.63;;;;;;;5.17;55.19;93960.53;5080885;28;20417;-45
2021/04/24 03:09:22;;;;;;;0.25;0.25;;;;;;;5.00;57.19;93953.59;5083352;28;20028;-45
2021/04/24 03:11:48;;;;;;;0.85;0.85;;;;;;;4.99;57.20;93947.38;5083747;28;20012;-47
2021/04/24 03:14:13;;;;;;;0.63;0.63;;;;;;;4.93;58.30;93945.91;5075935;28;20381;-46
2021/04/24 03:16:39;;;;;;;0.85;0.85;;;;;;;4.87;57.64;93953.38;5073284;28;20050;-46
2021/04/24 03:19:06;;;;;;;1.33;1.27;;;;;;;4.79;58.42;93955.09;5086762;28;20020;-46
2021/04/24 03:21:32;;;;;;;0.63;0.63;;;;;;;4.82;59.59;93951.38;5092980;28;20024;-46
2021/04/24 03:23:57;;;;;;;1.33;0.73;;;;;;;4.62;59.58;93946.91;5093282;28;20078;-45
2021/04/24 03:26:23;;;;;;;0.43;0.43;;;;;;;4.58;57.79;93949.16;5092999;28;20032;-44
2021/04/24 03:28:50;;;;;;;1.02;1.02;;;;;;;4.55;59.51;93945.44;5092934;28;20026;-43
2021/04/24 03:31:16;;;;;;;1.38;1.10;;;;;;;4.58;60.25;93952.66;5087403;28;20508;-45
2021/04/24 03:33:42;;;;;;;0.28;0.28;;;;;;;4.63;58.05;93948.44;5093152;28;20416;-45
2021/04/24 03:36:08;;;;;;;1.33;1.27;;;;;;;4.63;57.96;93938.22;5092774;28;20020;-49
2021/04/24 03:38:34;;;;;;;0.77;0.70;;;;;;;4.72;58.15;93934.47;5092757;28;20558;-45
2021/04/24 03:41:00;;;;;;;0.68;0.68;;;;;;;4.74;58.20;93942.94;5092519;28;20028;-48
2021/04/24 03:43:25;;;;;;;1.05;1.05;;;;;;;4.77;58.41;93949.38;5092918;28;20480;-44
2021/04/24 03:45:50;;;;;;;0.63;0.63;;;;;;;4.89;57.72;93945.41;5092670;28;20093;-45
2021/04/24 03:48:16;;;;;;;0.30;0.30;;;;;;;4.82;58.62;93949.41;5091100;28;20027;-45
2021/04/24 03:50:41;;;;;;;1.75;1.65;;;;;;;4.81;58.00;93941.69;5072255;28;20021;-46
2021/04/24 03:53:07;;;;;;;1.15;1.05;;;;;;;4.89;58.32;93953.63;5072300;28;20017;-49
2021/04/24 03:55:33;;;;;;;1.98;1.88;;;;;;;4.95;58.50;93943.41;5072508;28;20404;-44
2021/04/24 03:58:00;;;;;;;1.75;1.58;;;;;;;5.04;57.62;93943.16;5072212;28;20021;-45
2021/04/24 04:00:27;;;;;;;5.03;2.40;;;;;;;5.01;57.29;93949.59;5072067;28;20028;-44
2021/04/24 04:02:59;;;;;;;9.50;2.15;;;;;;;5.05;57.75;93950.09;5072197;28;20154;-47
2021/04/24 04:05:30;;;;;;;3.42;3.13;;;;;;;5.11;58.91;93954.31;5072240;28;20029;-46
2021/04/24 04:07:55;;;;;;;1.35;1.35;;;;;;;5.02;57.94;93956.59;5071495;28;20436;-44
2021/04/24 04:10:21;;;;;;;1.17;1.17;;;;;;;5.04;57.02;93956.81;5071793;28;20043;-49
2021/04/24 04:12:47;;;;;;;1.77;1.67;;;;;;;5.16;57.47;93961.78;5072012;28;20024;-44
2021/04/24 04:15:14;;;;;;;2.25;2.05;;;;;;;5.28;54.10;93962.50;5071969;28;20059;-46
2021/04/24 04:17:39;;;;;;;2.90;1.08;;;;;;;5.46;54.89;93967.41;5071847;28;20017;-45
2021/04/24 04:20:07;;;;;;;5.22;2.15;;;;;;;5.65;52.13;93973.09;5071665;28;20028;-46
2021/04/24 04:22:33;;;;;;;1.15;1.15;;;;;;;5.76;53.68;93962.81;5071667;28;20043;-47
2021/04/24 04:24:58;;;;;;;1.63;1.55;;;;;;;5.74;52.93;93951.59;5071612;28;20103;-46
2021/04/24 04:27:24;;;;;;;0.90;0.90;;;;;;;5.89;52.57;93971.25;5071552;28;20037;-47
2021/04/24 04:29:49;;;;;;;1.17;1.08;;;;;;;6.05;51.05;93975.16;5071860;28;20024;-44
2021/04/24 04:32:15;;;;;;;1.70;1.50;;;;;;;6.20;50.57;93972.06;5071816;28;20020;-46
2021/04/24 04:34:41;;;;;;;1.17;1.17;;;;;;;6.24;51.09;93972.56;5071742;28;20033;-46
2021/04/24 04:37:06;;;;;;;0.68;0.68;;;;;;;6.30;50.73;93971.28;5071594;28;20534;-45
2021/04/24 04:39:32;;;;;;;0.75;0.75;;;;;;;6.43;49.67;93967.94;5071683;28;20489;-44
2021/04/24 04:41:57;;;;;;;1.10;1.05;;;;;;;6.55;49.67;93970.09;5071538;28;20374;-44
2021/04/24 04:44:23;;;;;;;1.10;0.93;;;;;;;6.69;49.15;93969.00;5071416;28;20032;-43
2021/04/24 04:46:48;;;;;;;0.30;0.30;;;;;;;6.69;48.22;93958.00;5071583;28;20055;-44
2021/04/24 04:49:14;;;;;;;0.40;0.40;;;;;;;6.80;49.73;93965.41;5071120;28;20012;-48
2021/04/24 04:51:39;;;;;;;0.82;0.82;;;;;;;6.98;47.67;93969.50;5053291;28;20016;-46
2021/04/24 04:54:05;;;;;;;0.80;0.80;;;;;;;6.91;49.76;93950.88;5071399;28;20024;-46
2021/04/24 04:56:30;;;;;;;0.22;0.22;;;;;;;7.10;49.33;93968.91;5071111;28;20409;-46
2021/04/24 04:58:56;;;;;;;1.33;1.23;;;;;;;7.26;48.71;93983.72;5080678;28;20020;-44
2021/04/24 05:01:21;;;;;;;0.68;0.68;;;;;;;7.36;48.35;93969.13;5091422;28;20024;-45
2021/04/24 05:03:46;;;;;;;0.65;0.65;;;;;;;7.49;47.92;93961.00;5091098;28;20027;-45
2021/04/24 05:06:12;;;;;;;1.15;1.15;;;;;;;7.55;47.70;93972.69;5091384;28;20063;-44
2021/04/24 05:08:37;;;;;;;0.90;0.60;;;;;;;7.68;47.13;93971.28;5090932;28;20448;-46
2021/04/24 05:11:04;;;;;;;0.47;0.47;;;;;;;7.79;47.58;93965.66;5090905;28;20024;-44
2021/04/24 05:13:29;;;;;;;1.10;0.80;;;;;;;7.80;47.29;93965.13;5090999;28;20024;-46
2021/04/24 05:15:55;;;;;;;0.40;0.40;;;;;;;7.92;46.02;93954.75;5090519;28;20040;-44
2021/04/24 05:18:21;;;;;;;1.27;1.17;;;;;;;7.99;45.46;93948.69;5083533;28;20020;-47
2021/04/24 05:20:46;;;;;;;0.80;0.80;;;;;;;8.02;46.00;93951.13;5069738;28;20082;-46
2021/04/24 05:23:12;;;;;;;1.05;1.05;;;;;;;8.09;45.11;93945.03;5070450;28;20020;-45
2021/04/24 05:25:37;;;;;;;4.30;4.00;;;;;;;8.19;44.58;93937.13;5070436;28;20032;-44
2021/04/24 05:28:03;;;;;;;1.42;1.35;;;;;;;8.09;45.99;93928.53;5088860;28;20024;-45
2021/04/24 05:30:28;;;;;;;11.23;0.85;;;;;;;8.11;44.73;93936.25;5090827;28;20016;-45
2021/04/24 05:32:55;;;;;;;5.68;2.65;;;;;;;8.19;44.76;93934.38;5090228;28;20619;-43
2021/04/24 05:35:20;;;;;;;2.90;2.70;;;;;;;8.28;44.63;93928.53;5090466;28;20460;-45
2021/04/24 05:37:46;;;;;;;1.05;1.05;;;;;;;8.38;45.34;93935.16;5090502;28;20066;-46
2021/04/24 05:40:12;;;;;;;0.93;0.93;;;;;;;8.48;45.69;93941.75;5087218;28;20035;-46
2021/04/24 05:42:37;;;;;;;0.40;0.40;;;;;;;8.65;45.60;93947.75;5077977;28;20032;-45
2021/04/24 05:45:10;;;;;;;1.17;0.85;;;;;;;8.77;44.42;93957.28;5080114;28;20753;-43
2021/04/24 05:47:44;;;;;;;4.18;2.13;;;;;;;8.93;43.57;93953.53;5070344;28;20063;-44
2021/04/24 05:50:11;;;;;;;1.65;1.10;;;;;;;9.18;42.86;93946.59;5078012;28;20076;-43
2021/04/24 05:52:37;;;;;;;1.20;1.10;;;;;;;9.34;43.68;93957.84;5078148;28;20027;-45
2021/04/24 05:55:04;;;;;;;0.40;0.40;;;;;;;9.60;42.50;93957.88;5072384;28;20036;-43
2021/04/24 05:57:33;;;;;;;0.93;0.70;;;;;;;9.75;43.48;93953.31;5074678;28;20493;-46
2021/04/24 05:59:59;;;;;;;0.30;0.30;;;;;;;9.94;41.71;93959.44;5087134;28;20492;-46
2021/04/24 06:02:25;;;;;;;4.22;1.20;;;;;;;10.20;41.68;93955.91;5090016;28;20197;-43
2021/04/24 06:04:50;;;;;;;1.23;1.13;;;;;;;10.31;40.73;93947.41;5090286;28;20054;-44
2021/04/24 06:07:16;;;;;;;1.10;1.10;;;;;;;10.30;40.28;93945.94;5088649;28;20440;-44
2021/04/24 06:09:41;;;;;;;0.43;0.43;;;;;;;10.44;40.28;93952.88;5089741;28;20015;-42
2021/04/24 06:12:07;;;;;;;0.75;0.75;;;;;;;10.48;39.94;93947.06;5089840;28;20559;-44
2021/04/24 06:14:34;;;;;;;0.20;0.20;;;;;;;10.73;39.95;93958.50;5089127;28;20023;-46
2021/04/24 06:16:59;;;;;;;0.90;0.90;;;;;;;10.85;37.37;93962.53;5090109;28;20066;-44
2021/04/24 06:19:26;;;;;;;0.80;0.80;;;;;;;11.27;37.52;93961.22;5073673;28;20509;-45
2021/04/24 06:21:52;;;;;;;0.25;0.25;;;;;;;11.57;37.48;93955.91;5069683;28;20501;-43
2021/04/24 06:24:18;;;;;;;1.35;0.63;;;;;;;11.69;38.12;93957.13;5073336;28;20078;-45
2021/04/24 06:26:43;;;;;;;0.40;0.40;;;;;;;12.10;37.78;93945.94;5067031;28;20048;-46
2021/04/24 06:29:09;;;;;;;0.30;0.30;;;;;;;12.09;36.29;93958.28;5077092;28;20106;-44
2021/04/24 06:31:34;;;;;;;0.73;0.50;;;;;;;12.26;36.46;93968.84;5074358;28;20743;-48
2021/04/24 06:34:00;;;;;;;0.95;0.95;;;;;;;12.77;35.98;93966.84;5072685;28;20528;-47
2021/04/24 06:36:26;;;;;;;3.50;1.55;;;;;;;13.39;35.95;93960.81;5076037;28;20111;-48
2021/04/24 06:38:52;;;;;;;1.85;1.75;;;;;;;14.02;33.46;93952.59;5076460;28;20035;-45
2021/04/24 06:41:17;;;;;;;3.30;3.10;;;;;;;14.75;32.46;93954.94;5075962;28;20020;-45
2021/04/24 06:43:43;;;;;;;1.73;1.23;;;;;;;14.44;30.65;93964.72;5076235;28;20468;-46
2021/04/24 06:46:08;;;;;;;3.28;1.55;;;;;;;14.56;30.30;93973.38;5077324;28;20813;-44
2021/04/24 06:48:34;;;;;;;4.15;2.00;;;;;;;15.10;31.68;93975.31;5073810;28;20027;-44
2021/04/24 06:51:00;;;;;;;1.30;0.77;;;;;;;15.20;31.25;93973.41;5075677;28;20016;-44
2021/04/24 06:53:26;;;;;;;0.88;0.88;;;;;;;15.41;30.12;93971.03;5075512;28;20052;-43
2021/04/24 06:55:54;;;;;;;3.72;3.42;;;;;;;15.57;28.59;93972.38;5077240;28;20093;-45
2021/04/24 06:58:20;;;;;;;1.60;1.50;;;;;;;16.41;29.31;93978.66;5074158;28;20107;-43
2021/04/24 07:00:45;;;;;;;1.02;1.02;;;;;;;16.77;28.15;93975.28;5076135;28;20166;-45
2021/04/24 07:03:11;;;;;;;1.85;1.48;;;;;;;17.29;27.27;93973.81;5074544;28;20020;-44
2021/04/24 07:05:36;;;;;;;1.25;1.17;;;;;;;17.79;27.36;93970.63;5077383;28;20508;-45
2021/04/24 07:08:02;;;;;;;1.30;1.30;;;;;;;18.22;27.23;93975.28;5080332;28;20044;-46
2021/04/24 07:10:28;;;;;;;8.20;1.38;;;;;;;18.23;26.11;93973.22;5086968;28;20036;-43
2021/04/24 07:12:53;;;;;;;0.85;0.85;;;;;;;17.99;26.10;93970.13;5079162;28;20027;-45
2021/04/24 07:15:18;;;;;;;1.70;1.58;;;;;;;18.49;25.98;93975.19;5066646;28;20531;-44
2021/04/24 07:17:44;;;;;;;1.17;1.17;;;;;;;18.71;26.66;93962.84;5070611;28;20420;-41
2021/04/24 07:20:12;;;;;;;3.97;1.88;;;;;;;18.82;26.21;93976.19;5073995;28;20031;-43
2021/04/24 07:22:38;;;;;;;2.70;1.88;;;;;;;19.17;24.71;93960.53;5074268;28;20025;-43
2021/04/24 07:25:04;;;;;;;1.45;1.00;;;;;;;19.05;24.71;93962.47;5080926;28;20035;-46
2021/04/24 07:27:30;;;;;;;1.63;1.52;;;;;;;19.30;23.49;93956.50;5076000;28;20023;-42
2021/04/24 07:29:56;;;;;;;0.50;0.50;;;;;;;19.48;23.43;93966.22;5075525;28;20095;-43
2021/04/24 07:32:21;;;;;;;2.08;0.95;;;;;;;19.10;24.77;93961.41;5075563;28;20031;-44
2021/04/24 07:34:47;;;;;;;3.70;1.55;;;;;;;19.28;23.09;93961.97;5077023;28;20024;-43
2021/04/24 07:37:12;;;;;;;1.38;1.33;;;;;;;19.62;23.79;93956.72;5071504;28;20481;-42
2021/04/24 07:39:38;;;;;;;0.60;0.55;;;;;;;19.20;23.13;93959.34;5075864;28;20021;-44
2021/04/24 07:42:04;;;;;;;2.85;1.20;;;;;;;19.03;23.06;93962.34;5074265;28;20066;-45
2021/04/24 07:44:29;;;;;;;0.95;0.65;;;;;;;19.43;24.84;93953.25;5078522;28;20016;-44
2021/04/24 07:46:55;;;;;;;2.67;1.58;;;;;;;19.45;23.50;93965.31;5060722;28;20023;-43
2021/04/24 07:49:20;;;;;;;1.05;1.02;;;;;;;19.35;24.23;93961.09;5076071;28;20024;-46
2021/04/24 07:51:46;;;;;;;1.40;1.30;;;;;;;19.61;24.63;93955.25;5080595;28;20012;-46
2021/04/24 07:54:13;;;;;;;2.25;2.05;;;;;;;19.50;23.40;93958.69;5086766;28;20107;-43
2021/04/24 07:56:41;;;;;;;1.90;1.70;;;;;;;19.59;24.14;93971.19;5078825;28;20512;-44
2021/04/24 07:59:07;;;;;;;1.20;0.75;;;;;;;19.45;25.37;93965.31;5078013;28;20042;-43
2021/04/24 08:01:32;;;;;;;0.82;0.77;;;;;;;20.37;23.55;93964.56;5079998;28;20598;-43
2021/04/24 08:03:58;;;;;;;0.80;0.80;;;;;;;21.13;21.81;93968.84;5078741;28;20032;-43
2021/04/24 08:06:23;;;;;;;1.25;0.82;;;;;;;21.47;21.49;93968.16;5078274;28;20119;-44
2021/04/24 08:08:50;;;;;;;6.25;2.25;;;;;;;21.92;21.95;93962.50;5079720;28;20028;-45
2021/04/24 08:11:16;;;;;;;1.77;1.45;;;;;;;21.88;20.53;93952.47;5077777;28;20047;-44
2021/04/24 08:13:42;;;;;;;4.45;3.42;;;;;;;22.40;20.86;93956.91;5077299;28;20025;-44
2021/04/24 08:16:07;;;;;;;14.70;7.05;;;;;;;22.16;21.55;93964.66;5077249;28;20042;-45
2021/04/24 08:18:33;;;;;;;10.60;9.25;;;;;;;21.93;20.53;93956.25;5078192;28;20089;-45
2021/04/24 08:20:58;;;;;;;3.17;1.80;;;;;;;22.13;21.06;93953.91;5078273;28;20028;-46
2021/04/24 08:23:23;;;;;;;0.85;0.82;;;;;;;22.55;19.63;93950.75;5077756;28;20043;-44
2021/04/24 08:25:49;;;;;;;1.02;1.02;;;;;;;22.58;20.42;93952.34;5080751;28;20023;-45
2021/04/24 08:28:14;;;;;;;0.30;0.30;;;;;;;22.97;21.30;93938.38;5080183;28;20066;-47
2021/04/24 08:30:40;;;;;;;0.80;0.70;;;;;;;23.00;20.06;93946.31;5080228;28;20042;-45
2021/04/24 08:33:08;;;;;;;0.73;0.57;;;;;;;23.20;21.01;93946.72;5078807;28;20558;-47
2021/04/24 08:35:33;;;;;;;2.30;1.35;;;;;;;23.62;19.58;93937.78;5074969;28;20020;-46
2021/04/24 08:37:59;;;;;;;2.58;2.05;;;;;;;24.09;18.80;93938.16;5077441;28;20016;-47
2021/04/24 08:40:24;;;;;;;0.57;0.52;;;;;;;24.08;18.58;93931.06;5075106;28;20023;-46
2021/04/24 08:42:50;;;;;;;0.73;0.63;;;;;;;23.74;18.87;93918.69;5078141;28;20032;-45
2021/04/24 08:45:19;;;;;;;2.50;1.52;;;;;;;23.05;19.77;93921.94;5071345;28;20023;-43
2021/04/24 08:47:50;;;;;;;0.57;0.50;;;;;;;23.20;19.79;93918.53;5076075;28;20016;-45
2021/04/24 08:50:22;;;;;;;0.52;0.52;;;;;;;23.52;19.99;93902.69;5076552;28;20107;-47
2021/04/24 08:52:49;;;;;;;0.50;0.50;;;;;;;23.64;19.70;93906.88;5085925;28;20111;-45
2021/04/24 08:55:21;;;;;;;1.38;1.27;;;;;;;23.38;19.66;93901.91;5089059;28;20051;-46
2021/04/24 08:57:48;;;;;;;0.65;0.65;;;;;;;22.96;19.31;93897.47;5082685;28;20032;-44
2021/04/24 09:00:15;;;;;;;0.63;0.63;;;;;;;23.06;20.06;93895.25;5075738;28;20112;-49
2021/04/24 09:02:45;;;;;;;1.88;1.00;;;;;;;22.50;20.43;93887.88;5076819;28;20028;-44
2021/04/24 09:05:13;;;;;;;0.57;0.50;;;;;;;22.16;20.35;93894.34;5070510;28;20086;-47
2021/04/24 09:07:39;;;;;;;3.53;1.30;;;;;;;22.06;21.07;93888.13;5068400;28;20128;-44
2021/04/24 09:10:05;;;;;;;1.08;1.00;;;;;;;22.22;20.33;93882.72;5068711;28;20116;-44
2021/04/24 09:12:35;;;;;;;0.57;0.52;;;;;;;21.88;20.79;93875.81;5068688;28;20024;-46
2021/04/24 09:15:27;;;;;;;0.35;0.35;;;;;;;21.92;21.82;93875.34;5070627;28;20107;-44
2021/04/24 09:17:57;;;;;;;4.50;0.82;;;;;;;22.37;20.69;93868.13;5071729;28;20041;-45
2021/04/24 09:20:24;;;;;;;1.20;0.73;;;;;;;22.68;22.11;93876.19;5066959;28;20016;-45
2021/04/24 09:23:06;;;;;;;0.85;0.75;;;;;;;22.25;21.66;93856.16;5067999;28;20036;-45
2021/04/24 09:25:45;;;;;;;1.02;0.98;;;;;;;22.02;20.26;93856.22;5072473;28;20036;-42
2021/04/24 09:28:12;;;;;;;1.17;1.08;;;;;;;22.13;20.45;93856.22;5071896;28;20796;-43
2021/04/24 09:30:40;;;;;;;1.38;1.27;;;;;;;22.19;19.94;93853.75;5068119;28;20032;-42
2021/04/24 09:33:13;;;;;;;0.77;0.35;;;;;;;22.73;21.97;93844.13;5067374;28;20036;-43
2021/04/24 09:35:42;;;;;;;0.63;0.63;;;;;;;22.73;20.60;93849.75;5033532;28;20028;-45
2021/04/24 09:38:09;;;;;;;1.95;0.57;;;;;;;22.07;20.70;93841.78;5077396;28;20024;-41
2021/04/24 09:40:35;;;;;;;0.10;0.10;;;;;;;22.00;21.27;93845.59;5087561;28;20032;-44
2021/04/24 09:43:07;;;;;;;1.77;1.20;;;;;;;22.26;21.12;93840.75;5087755;28;20115;-42
2021/04/24 09:45:33;;;;;;;0.82;0.75;;;;;;;21.95;19.99;93835.47;5088247;28;20048;-42
2021/04/24 09:48:00;;;;;;;3.05;0.80;;;;;;;21.85;21.52;93838.41;5066735;28;20082;-42
2021/04/24 09:50:36;;;;;;;1.48;1.38;;;;;;;21.41;21.41;93832.97;5077830;28;20629;-48
2021/04/24 09:53:19;;;;;;;0.77;0.77;;;;;;;20.60;22.71;93818.81;5076060;28;20824;-46
2021/04/24 09:55:46;;;;;;;0.70;0.70;;;;;;;20.35;22.72;93824.22;5076600;28;20032;-47
2021/04/24 09:58:35;;;;;;;0.95;0.85;;;;;;;19.84;22.15;93836.28;5073531;28;20028;-51
2021/04/24 10:01:26;;;;;;;1.40;1.30;;;;;;;19.26;21.74;93825.38;5076453;28;20024;-46
2021/04/24 10:03:54;;;;;;;1.77;1.67;;;;;;;19.04;23.25;93814.72;5075240;28;20031;-45
2021/04/24 10:06:31;;;;;;;0.88;0.88;;;;;;;18.62;23.93;93818.13;5077453;28;20036;-43
2021/04/24 10:09:16;;;;;;;0.40;0.40;;;;;;;18.16;23.77;93810.69;5073126;28;20041;-46
2021/04/24 10:11:48;;;;;;;0.98;0.95;;;;;;;17.80;25.01;93802.47;5074993;28;20028;-47
2021/04/24 10:14:29;;;;;;;1.02;0.95;;;;;;;17.59;24.98;93801.56;5072286;28;20039;-45
2021/04/24 10:16:57;;;;;;;1.08;1.00;;;;;;;17.30;25.20;93810.59;5056199;28;20031;-44
2021/04/24 10:19:24;;;;;;;3.00;1.48;;;;;;;16.99;26.47;93804.06;5054202;28;20191;-45
2021/04/24 10:21:50;;;;;;;1.35;1.25;;;;;;;17.15;27.13;93807.38;5067049;28;20570;-43
2021/04/24 10:24:15;;;;;;;1.85;1.05;;;;;;;17.21;26.74;93797.38;5067409;28;20054;-45
2021/04/24 10:26:42;;;;;;;0.95;0.95;;;;;;;17.18;26.58;93798.53;5075007;28;20729;-45
2021/04/24 10:29:09;;;;;;;3.67;2.30;;;;;;;16.99;26.81;93789.38;5076402;28;20032;-46
2021/04/24 10:31:35;;;;;;;1.10;1.10;;;;;;;16.94;26.71;93787.59;5042336;28;20024;-45
2021/04/24 10:34:04;;;;;;;2.63;2.17;;;;;;;17.06;27.82;93799.69;5076078;28;20028;-47
2021/04/24 10:36:29;;;;;;;0.40;0.40;;;;;;;17.13;28.20;93790.47;5058999;28;20526;-44
2021/04/24 10:38:56;;;;;;;0.60;0.60;;;;;;;17.21;27.48;93791.06;5074951;28;20449;-45
2021/04/24 10:41:27;;;;;;;0.93;0.93;;;;;;;17.27;26.83;93785.94;5076749;28;20511;-43
2021/04/24 10:44:01;;;;;;;1.02;1.02;;;;;;;17.47;26.79;93790.22;5061321;28;20032;-44
2021/04/24 10:46:28;;;;;;;0.70;0.70;;;;;;;17.63;26.89;93787.94;5074581;28;20036;-47
2021/04/24 10:49:16;;;;;;;1.50;1.35;;;;;;;17.93;25.41;93782.47;5076444;28;20032;-46
2021/04/24 10:51:57;;;;;;;1.23;1.13;;;;;;;17.86;24.29;93788.97;5074512;28;20131;-46
2021/04/24 10:54:28;;;;;;;1.95;1.50;;;;;;;17.86;25.29;93800.13;5071605;28;20043;-47
2021/04/24 10:56:54;;;;;;;1.40;0.90;;;;;;;17.76;26.21;93791.00;5075695;28;20036;-49
2021/04/24 10:59:21;;;;;;;0.60;0.60;;;;;;;17.74;24.85;93792.91;5062354;28;20061;-42
2021/04/24 11:02:10;;;;;;;0.52;0.52;;;;;;;17.54;24.35;93794.97;5068583;28;20024;-42
2021/04/24 11:04:51;;;;;;;0.95;0.90;;;;;;;17.48;24.98;93800.06;5066582;28;20123;-48
2021/04/24 11:07:24;;;;;;;0.30;0.30;;;;;;;17.56;27.57;93803.50;5051506;28;20054;-42
2021/04/24 11:10:11;;;;;;;0.60;0.60;;;;;;;17.15;24.98;93810.16;5087238;28;20111;-46
2021/04/24 11:12:47;;;;;;;1.10;1.05;;;;;;;17.20;26.25;93809.84;5086879;28;20161;-45
2021/04/24 11:15:17;;;;;;;1.27;1.17;;;;;;;17.37;25.42;93820.16;5068567;28;20481;-49
2021/04/24 11:17:43;;;;;;;4.85;1.48;;;;;;;16.97;24.91;93817.88;5087502;28;20047;-44
2021/04/24 11:20:10;;;;;;;1.35;1.35;;;;;;;17.26;25.85;93829.13;5090834;28;20032;-45
2021/04/24 11:22:40;;;;;;;1.00;0.95;;;;;;;17.30;25.73;93826.63;5090902;28;20032;-38
2021/04/24 11:25:22;;;;;;;1.75;0.68;;;;;;;17.26;26.23;93829.13;5091243;28;20035;-38
2021/04/24 11:28:07;;;;;;;4.07;1.98;;;;;;;17.53;28.53;93835.38;5088497;28;20059;-40
2021/04/24 11:30:57;;;;;;;1.60;1.50;;;;;;;17.80;26.29;93835.97;5080968;28;20518;-39
2021/04/24 11:33:47;;;;;;;1.40;1.35;;;;;;;18.04;25.14;93834.97;5078253;28;20043;-40
2021/04/24 11:36:25;;;;;;;1.52;1.00;;;;;;;18.02;26.03;93837.59;5069013;28;20036;-41
2021/04/24 11:38:57;;;;;;;0.25;0.25;;;;;;;17.96;24.99;93837.16;5078795;28;20527;-38